Time;durP1;ratioP1;P1;durP2;ratioP2;P2;SDS_P1;SDS_P2;PMS_P1;PMS_P2;Temp;Humidity;BMP_temperature;BMP_pressure;BME280_temperature;BME280_humidity;BME280_pressure;Samples;Min_cycle;Max_cycle;Signal;HPM_P1;HPM_P2
2021/09/14 00:01:09;;;;;;;29.50;18.77;;;;;;;14.70;72.39;100596.91;1731110;83;20940;-64
2021/09/14 00:03:36;;;;;;;27.17;18.37;;;;;;;14.67;72.67;100597.13;1731197;83;21876;-65
2021/09/14 00:06:02;;;;;;;30.20;18.65;;;;;;;14.65;72.76;100600.36;1731242;83;20889;-64
2021/09/14 00:08:29;;;;;;;32.10;17.92;;;;;;;14.63;72.84;100595.67;1731148;83;20873;-65
2021/09/14 00:10:59;;;;;;;30.23;18.67;;;;;;;14.60;72.90;100593.28;1731005;82;20950;-64
2021/09/14 00:13:26;;;;;;;26.40;18.30;;;;;;;14.59;73.08;100599.54;1730950;83;20991;-64
2021/09/14 00:15:53;;;;;;;26.87;17.57;;;;;;;14.59;73.08;100599.54;1731163;83;21192;-63
2021/09/14 00:18:21;;;;;;;28.20;18.85;;;;;;;14.55;73.03;100593.64;1731113;82;20853;-65
2021/09/14 00:20:49;;;;;;;27.55;16.75;;;;;;;14.54;73.11;100596.36;1731151;83;20988;-66
2021/09/14 00:23:16;;;;;;;30.50;17.67;;;;;;;14.51;73.20;100599.59;1731135;83;21030;-64
2021/09/14 00:25:43;;;;;;;21.82;16.57;;;;;;;14.47;73.19;100591.58;1731138;83;21038;-65
2021/09/14 00:28:10;;;;;;;32.30;17.90;;;;;;;14.43;72.99;100597.21;1731234;83;21118;-64
2021/09/14 00:30:36;;;;;;;25.92;17.05;;;;;;;14.43;72.99;100597.21;1731166;83;20893;-63
2021/09/14 00:33:04;;;;;;;26.05;17.82;;;;;;;14.40;73.34;100591.66;1731165;82;20904;-64
2021/09/14 00:35:31;;;;;;;24.37;17.98;;;;;;;14.36;73.35;100590.25;1731270;82;20913;-64
2021/09/14 00:37:58;;;;;;;26.15;18.05;;;;;;;14.34;73.46;100594.80;1731243;83;20904;-62
2021/09/14 00:40:25;;;;;;;30.77;17.90;;;;;;;14.33;73.54;100590.45;1731110;83;21264;-63
2021/09/14 00:42:52;;;;;;;28.75;17.60;;;;;;;14.33;73.55;100592.27;1731145;83;20925;-63
2021/09/14 00:45:18;;;;;;;26.25;16.48;;;;;;;14.31;73.61;100590.56;1731151;83;21434;-63
2021/09/14 00:47:45;;;;;;;26.30;18.87;;;;;;;14.30;73.52;100585.42;1731042;82;20987;-64
2021/09/14 00:50:12;;;;;;;24.82;17.12;;;;;;;14.27;73.53;100586.51;1731293;83;21417;-64
2021/09/14 00:52:40;;;;;;;24.37;17.27;;;;;;;14.27;73.61;100577.73;1731119;83;21153;-64
2021/09/14 00:55:08;;;;;;;26.87;17.25;;;;;;;14.27;73.61;100577.73;1724241;82;20937;-63
2021/09/14 00:57:37;;;;;;;29.27;16.62;;;;;;;14.22;73.52;100582.04;1715576;82;21016;-64
2021/09/14 01:00:09;;;;;;;28.12;18.82;;;;;;;14.19;73.70;100586.73;1715592;83;20973;-65
2021/09/14 01:02:38;;;;;;;27.13;17.42;;;;;;;14.19;73.70;100586.73;1715974;82;20937;-65
2021/09/14 01:05:06;;;;;;;35.13;17.95;;;;;;;14.20;73.52;100591.03;1751254;81;21213;-64
2021/09/14 01:07:35;;;;;;;35.03;20.30;;;;;;;14.18;73.38;100587.66;1772762;80;20955;-63
2021/09/14 01:10:03;;;;;;;30.25;17.60;;;;;;;14.16;73.17;100588.25;1772751;81;20876;-64
2021/09/14 01:12:31;;;;;;;27.25;18.57;;;;;;;14.14;73.26;100585.75;1772847;80;21567;-64
2021/09/14 01:14:58;;;;;;;32.40;19.20;;;;;;;14.14;73.40;100584.44;1772881;81;20963;-64
2021/09/14 01:17:25;;;;;;;35.00;19.10;;;;;;;14.13;73.45;100579.27;1772978;80;21327;-63
2021/09/14 01:19:53;;;;;;;28.85;18.95;;;;;;;14.10;73.44;100582.98;1751389;81;20931;-64
2021/09/14 01:22:20;;;;;;;26.25;17.48;;;;;;;14.10;73.44;100582.98;1772841;81;21026;-63
2021/09/14 01:24:47;;;;;;;30.12;18.60;;;;;;;14.02;73.54;100584.03;1772492;79;20909;-63
2021/09/14 01:27:16;;;;;;;30.80;19.07;;;;;;;14.02;73.54;100584.03;1772835;79;20932;-66
2021/09/14 01:32:30;;;;;;;24.27;19.32;;;;;;;14.00;73.79;100587.25;1772933;81;20928;-64
2021/09/14 01:35:13;;;;;;;30.65;19.98;;;;;;;14.00;73.81;100588.09;1772703;81;20900;-64
2021/09/14 01:37:41;;;;;;;27.27;19.52;;;;;;;14.00;73.77;100592.53;1773092;80;20920;-64
2021/09/14 01:40:10;;;;;;;35.52;20.55;;;;;;;13.98;73.68;100592.63;1772715;81;20924;-65
2021/09/14 01:42:37;;;;;;;32.70;21.60;;;;;;;13.96;73.67;100594.57;1772977;79;21509;-63
2021/09/14 01:45:07;;;;;;;34.45;19.10;;;;;;;13.95;73.62;100594.19;1772584;80;20904;-63
2021/09/14 01:47:35;;;;;;;27.65;18.48;;;;;;;13.94;73.51;100590.34;1772951;79;20880;-63
2021/09/14 01:50:04;;;;;;;30.92;20.37;;;;;;;13.89;73.56;100594.19;1772677;80;20885;-64
2021/09/14 01:52:32;;;;;;;31.02;20.20;;;;;;;13.88;73.53;100589.86;1773249;81;21330;-63
2021/09/14 01:55:08;;;;;;;33.35;19.45;;;;;;;13.88;73.44;100591.66;1774084;80;21132;-64
2021/09/14 01:57:37;;;;;;;33.58;19.60;;;;;;;13.86;73.35;100589.13;1738869;82;20979;-63
2021/09/14 02:00:14;;;;;;;37.35;19.15;;;;;;;13.83;73.37;100589.36;1722787;82;21039;-63
2021/09/14 02:05:45;;;;;;;39.85;22.27;;;;;;;13.81;73.43;100588.63;1739280;82;21287;-63
2021/09/14 02:30:07;;;;;;;39.00;20.37;;;;;;;13.73;73.55;100590.16;1718980;82;20942;-64
2021/09/14 02:59:37;;;;;;;32.65;19.12;;;;;;;13.58;73.94;100610.55;1778430;79;20970;-65
2021/09/14 03:02:05;;;;;;;35.78;18.52;;;;;;;13.60;74.02;100625.77;1778844;80;21138;-64
2021/09/14 03:04:33;;;;;;;31.68;19.20;;;;;;;13.59;73.91;100632.84;1779102;79;20872;-65
2021/09/14 03:07:02;;;;;;;28.10;17.42;;;;;;;13.59;73.93;100641.23;1780726;79;20884;-64
2021/09/14 03:09:33;;;;;;;26.42;17.67;;;;;;;13.60;73.85;100646.86;1779821;80;20919;-62
2021/09/14 03:12:02;;;;;;;33.88;18.82;;;;;;;13.60;73.64;100654.77;1739561;82;21410;-64
2021/09/14 03:14:31;;;;;;;31.27;17.07;;;;;;;13.59;73.67;100649.14;1723002;83;21084;-64
2021/09/14 03:16:58;;;;;;;27.55;16.70;;;;;;;13.59;73.67;100659.68;1738966;82;20945;-64
2021/09/14 03:19:25;;;;;;;29.57;17.05;;;;;;;13.58;73.51;100669.84;1778942;79;21417;-64
2021/09/14 03:21:54;;;;;;;19.98;14.90;;;;;;;13.57;73.34;100670.80;1778547;80;21334;-63
2021/09/14 03:24:21;;;;;;;29.25;15.72;;;;;;;13.57;73.57;100675.59;1778493;79;20825;-64
2021/09/14 03:26:52;;;;;;;27.60;16.25;;;;;;;13.56;73.68;100672.61;1778559;80;21137;-63
2021/09/14 03:29:19;;;;;;;25.52;17.62;;;;;;;13.52;73.86;100675.09;1778564;80;20888;-65
2021/09/14 03:31:46;;;;;;;30.92;16.37;;;;;;;13.48;74.16;100676.25;1778534;80;21493;-65
2021/09/14 03:34:13;;;;;;;30.60;17.40;;;;;;;13.44;74.59;100669.52;1778420;80;20904;-65
2021/09/14 03:36:40;;;;;;;31.85;17.82;;;;;;;13.46;75.21;100667.61;1778748;80;20880;-63
2021/09/14 03:39:07;;;;;;;29.18;16.65;;;;;;;13.50;76.01;100675.67;1778527;80;21154;-63
2021/09/14 03:41:35;;;;;;;34.08;19.17;;;;;;;13.53;76.00;100676.76;1778570;80;20911;-63
2021/09/14 03:44:03;;;;;;;34.53;17.98;;;;;;;13.55;76.32;100674.02;1778460;80;20872;-64
2021/09/14 03:46:29;;;;;;;27.65;16.32;;;;;;;13.56;76.44;100672.61;1738990;82;20960;-64
2021/09/14 03:48:56;;;;;;;27.98;17.12;;;;;;;13.59;76.57;100672.86;1722894;82;20992;-64
2021/09/14 03:51:24;;;;;;;30.10;18.48;;;;;;;13.62;76.84;100677.41;1738972;82;21370;-65
2021/09/14 03:53:51;;;;;;;35.98;20.85;;;;;;;13.66;76.92;100663.06;1778505;79;20864;-64
2021/09/14 03:56:18;;;;;;;31.68;18.87;;;;;;;13.70;76.97;100666.33;1773194;79;20963;-63
2021/09/14 03:58:45;;;;;;;33.98;19.82;;;;;;;13.76;77.22;100676.44;1768214;81;20998;-64
2021/09/14 04:01:13;;;;;;;34.67;18.60;;;;;;;13.84;77.20;100683.30;1726757;83;20925;-64
2021/09/14 04:03:45;;;;;;;36.55;18.57;;;;;;;13.90;77.06;100671.47;1768463;80;20872;-64
2021/09/14 04:08:53;;;;;;;31.62;18.52;;;;;;;14.04;76.32;100672.61;1768399;80;20904;-63
2021/09/14 04:11:23;;;;;;;45.92;19.77;;;;;;;14.12;76.07;100673.83;1726230;83;21074;-63
2021/09/14 04:13:54;;;;;;;38.45;19.10;;;;;;;14.20;75.66;100674.11;1743623;81;20928;-62
2021/09/14 04:16:22;;;;;;;49.03;20.88;;;;;;;14.26;75.43;100673.66;1768445;81;21144;-64
2021/09/14 04:18:50;;;;;;;37.55;20.68;;;;;;;14.30;75.31;100672.48;1726828;83;20940;-64
2021/09/14 04:21:17;;;;;;;31.57;20.02;;;;;;;14.35;75.15;100671.65;1768589;80;21476;-65
2021/09/14 04:23:44;;;;;;;36.95;20.80;;;;;;;14.40;75.05;100676.09;1768379;81;20963;-70
2021/09/14 04:26:11;;;;;;;49.27;20.55;;;;;;;14.43;74.99;100678.52;1768372;81;20864;-70
2021/09/14 04:28:38;;;;;;;36.05;19.85;;;;;;;14.48;74.92;100670.25;1768827;81;21490;-70
2021/09/14 04:31:05;;;;;;;35.48;20.70;;;;;;;14.53;74.92;100674.70;1768450;81;20999;-69
2021/09/14 04:33:34;;;;;;;41.18;21.12;;;;;;;14.58;74.93;100673.89;1726594;83;20886;-71
2021/09/14 04:36:02;;;;;;;46.15;22.60;;;;;;;14.63;74.96;100675.72;1768139;81;21508;-68
2021/09/14 04:38:31;;;;;;;46.10;21.30;;;;;;;14.68;74.91;100672.73;1726807;82;20932;-69
2021/09/14 04:40:59;;;;;;;50.60;22.25;;;;;;;14.75;74.92;100671.30;1768378;80;21156;-69
2021/09/14 04:43:27;;;;;;;73.02;23.55;;;;;;;14.86;74.95;100675.75;1768254;81;20983;-69
2021/09/14 04:45:53;;;;;;;56.95;23.50;;;;;;;14.99;74.88;100679.62;1742133;81;21446;-71
2021/09/14 04:48:22;;;;;;;99.42;27.22;;;;;;;15.14;74.77;100678.42;1768452;81;20881;-69
2021/09/14 04:50:48;;;;;;;88.97;25.30;;;;;;;15.34;74.58;100676.37;1726705;83;20961;-69
2021/09/14 04:53:17;;;;;;;76.55;26.20;;;;;;;15.72;74.54;100678.27;1768336;80;21153;-70
2021/09/14 04:55:45;;;;;;;68.28;27.27;;;;;;;16.26;73.96;100676.52;1727598;81;20999;-70
2021/09/14 04:58:12;;;;;;;58.40;25.08;;;;;;;16.89;72.40;100677.84;1707421;84;20996;-70
2021/09/14 05:00:39;;;;;;;54.85;24.40;;;;;;;17.56;70.59;100679.07;1772715;79;20909;-71
2021/09/14 05:03:08;;;;;;;59.60;25.60;;;;;;;18.22;68.41;100674.01;1772593;81;20967;-72
2021/09/14 05:05:34;;;;;;;47.60;21.35;;;;;;;18.87;66.36;100675.20;1772902;79;22181;-72
2021/09/14 05:08:02;;;;;;;66.02;26.60;;;;;;;19.48;64.34;100672.00;1772533;79;20837;-73
2021/09/14 05:10:29;;;;;;;63.65;25.40;;;;;;;20.05;62.38;100675.77;1772568;81;20931;-71
2021/09/14 05:12:57;;;;;;;96.72;30.80;;;;;;;20.60;60.54;100677.42;1772503;80;20916;-72
2021/09/14 05:15:26;;;;;;;68.02;28.12;;;;;;;21.13;58.90;100682.23;1772666;80;21022;-76
2021/09/14 05:18:13;;;;;;;62.25;25.30;;;;;;;21.59;57.31;100685.42;1759519;81;21161;-76
2021/09/14 05:20:42;;;;;;;56.40;22.77;;;;;;;22.04;55.56;100691.71;1771249;80;21002;-77
2021/09/14 05:23:21;;;;;;;44.50;22.13;;;;;;;22.48;54.42;100693.27;1772938;81;21547;-76
2021/09/14 05:25:44;;;;;;;64.10;24.20;;;;;;;22.88;53.44;100696.89;1771404;80;20923;-76
2021/09/14 05:28:13;;;;;;;48.55;27.75;;;;;;;23.27;52.22;100697.46;1772653;79;21430;-75
2021/09/14 05:30:44;;;;;;;51.15;24.75;;;;;;;23.68;51.21;100694.09;1772754;80;20909;-76
2021/09/14 05:33:10;;;;;;;44.85;22.20;;;;;;;24.11;50.24;100694.51;1772681;81;20873;-75
2021/09/14 05:35:53;;;;;;;46.63;24.40;;;;;;;24.51;48.94;100695.22;1772716;80;20912;-76
2021/09/14 05:38:22;;;;;;;41.37;23.67;;;;;;;24.89;47.63;100706.42;1772621;81;20986;-75
2021/09/14 05:40:56;;;;;;;43.70;22.55;;;;;;;25.27;46.73;100698.31;1772550;80;20983;-75
2021/09/14 05:43:26;;;;;;;;;;;;;;;25.62;46.07;100698.86;1775610;79;21169;-76
2021/09/14 05:45:55;;;;;;;33.42;21.07;;;;;;;25.97;45.13;100703.10;1772867;81;20087;-76
2021/09/14 05:48:24;;;;;;;40.45;20.82;;;;;;;26.25;44.96;100692.91;1772583;81;20837;-76
2021/09/14 05:50:53;;;;;;;35.33;19.30;;;;;;;26.59;44.46;100696.73;1772650;79;20888;-76
2021/09/14 05:53:21;;;;;;;30.88;19.27;;;;;;;26.91;44.16;100700.69;1772696;81;20959;-76
2021/09/14 05:55:50;;;;;;;34.83;18.17;;;;;;;27.21;43.40;100695.94;1772096;79;21125;-72
2021/09/14 05:58:17;;;;;;;26.57;17.85;;;;;;;27.54;42.91;100698.44;1772969;81;21413;-71
2021/09/14 06:00:44;;;;;;;26.93;19.85;;;;;;;27.84;42.19;100703.00;1772816;79;20863;-72
2021/09/14 06:03:11;;;;;;;31.33;19.20;;;;;;;28.11;41.56;100699.86;1772775;80;20852;-73
2021/09/14 06:05:39;;;;;;;26.27;17.70;;;;;;;28.39;40.90;100707.77;1772744;79;20920;-72
2021/09/14 06:08:07;;;;;;;26.42;18.55;;;;;;;28.63;40.50;100708.19;1772642;81;21540;-72
2021/09/14 06:10:34;;;;;;;27.70;17.50;;;;;;;28.82;40.16;100697.89;1772615;81;20911;-71
2021/09/14 06:13:03;;;;;;;29.20;18.67;;;;;;;29.08;39.76;100704.25;1772038;79;20916;-71
2021/09/14 06:15:30;;;;;;;30.23;17.65;;;;;;;29.36;39.18;100708.05;1772826;79;20979;-73
2021/09/14 06:17:57;;;;;;;33.28;20.40;;;;;;;29.59;38.62;100706.69;1772874;80;21017;-74
2021/09/14 06:20:26;;;;;;;34.15;20.68;;;;;;;29.81;38.29;100711.29;1772915;79;21548;-71
2021/09/14 06:22:53;;;;;;;33.48;18.98;;;;;;;30.02;37.92;100711.48;1772854;80;20876;-65
2021/09/14 06:25:20;;;;;;;28.27;17.80;;;;;;;30.16;38.10;100707.09;1772902;80;20896;-64
2021/09/14 06:27:47;;;;;;;24.37;18.27;;;;;;;30.34;37.92;100710.42;1751210;81;20977;-68
2021/09/14 06:30:15;;;;;;;29.18;16.65;;;;;;;30.51;37.60;100714.77;1773140;80;20872;-67
2021/09/14 06:32:42;;;;;;;24.30;17.00;;;;;;;30.67;37.28;100712.02;1772774;81;21397;-67
2021/09/14 06:35:10;;;;;;;23.02;17.73;;;;;;;30.84;36.64;100714.14;1773119;80;21424;-66
2021/09/14 06:37:42;;;;;;;22.40;16.35;;;;;;;31.05;36.21;100712.93;1772827;80;20840;-64
2021/09/14 06:40:09;;;;;;;23.50;16.70;;;;;;;31.25;35.42;100719.48;1773187;81;21441;-67
2021/09/14 06:42:36;;;;;;;22.10;17.17;;;;;;;31.41;35.11;100716.14;1773161;79;21420;-73
2021/09/14 06:45:07;;;;;;;28.92;18.37;;;;;;;31.52;34.59;100714.05;1769843;81;21131;-67
2021/09/14 06:47:41;;;;;;;22.50;16.52;;;;;;;31.64;33.68;100720.89;1770810;80;20904;-69
2021/09/14 06:50:09;;;;;;;95.28;20.97;;;;;;;31.76;33.13;100714.98;1773308;81;20959;-67
2021/09/14 06:52:37;;;;;;;23.50;15.45;;;;;;;31.91;32.54;100723.23;1772966;81;21089;-67
2021/09/14 06:55:06;;;;;;;24.80;16.05;;;;;;;32.03;32.26;100721.41;1773109;80;21374;-67
2021/09/14 06:57:33;;;;;;;21.65;15.83;;;;;;;32.13;32.18;100714.08;1776718;80;21790;-65
2021/09/14 07:00:01;;;;;;;22.82;15.83;;;;;;;32.28;32.04;100714.43;1778604;80;21330;-66
2021/09/14 07:02:29;;;;;;;112.60;20.92;;;;;;;32.45;32.00;100721.37;1778646;80;20924;-69
2021/09/14 07:04:57;;;;;;;18.82;15.65;;;;;;;32.45;31.78;100715.94;1738758;82;20869;-68
2021/09/14 07:07:24;;;;;;;83.72;20.90;;;;;;;32.29;31.93;100709.84;1722820;83;20933;-75
2021/09/14 07:09:51;;;;;;;133.43;23.30;;;;;;;31.98;32.21;100709.07;1739058;82;21124;-77
2021/09/14 07:12:21;;;;;;;28.02;16.85;;;;;;;31.70;32.65;100711.82;1778494;80;20971;-69
2021/09/14 07:14:50;;;;;;;23.70;16.60;;;;;;;31.43;33.33;100711.88;1778682;80;20923;-66
2021/09/14 07:17:18;;;;;;;22.85;16.05;;;;;;;31.04;33.83;100705.84;1778495;80;20969;-67
2021/09/14 07:19:45;;;;;;;22.60;15.65;;;;;;;30.67;34.39;100714.73;1778567;80;20829;-67
2021/09/14 07:22:14;;;;;;;23.27;15.85;;;;;;;30.28;34.90;100709.13;1778570;80;20907;-66
2021/09/14 07:24:41;;;;;;;18.40;15.28;;;;;;;30.03;35.63;100717.19;1778795;80;20876;-68
2021/09/14 07:27:07;;;;;;;19.62;14.85;;;;;;;29.81;35.95;100722.92;1739326;81;21015;-66
2021/09/14 07:29:35;;;;;;;19.70;16.00;;;;;;;29.86;36.45;100718.22;1722926;83;20877;-67
2021/09/14 07:32:07;;;;;;;17.50;14.45;;;;;;;30.07;36.35;100719.23;1709546;82;20960;-67
2021/09/14 07:34:34;;;;;;;16.85;15.13;;;;;;;30.43;35.85;100718.28;1738853;82;21249;-67
2021/09/14 07:37:03;;;;;;;17.48;14.85;;;;;;;30.83;34.74;100713.85;1722673;83;20889;-69
2021/09/14 07:39:30;;;;;;;18.30;13.80;;;;;;;31.22;33.08;100703.15;1739244;82;20968;-67
2021/09/14 07:41:57;;;;;;;20.17;15.38;;;;;;;31.63;32.67;100712.98;1778596;80;20892;-67
2021/09/14 07:44:24;;;;;;;17.87;13.28;;;;;;;31.99;32.45;100704.78;1739213;82;20861;-67
2021/09/14 07:46:51;;;;;;;19.05;13.05;;;;;;;32.32;32.14;100697.98;1738963;82;21210;-68
2021/09/14 07:49:18;;;;;;;18.15;13.72;;;;;;;32.57;31.69;100700.52;1723193;82;20893;-66
2021/09/14 07:51:45;;;;;;;16.00;13.10;;;;;;;32.77;31.07;100700.67;1683153;84;20920;-68
2021/09/14 07:54:13;;;;;;;13.98;12.65;;;;;;;32.98;30.61;100701.42;1738917;81;20936;-67
2021/09/14 07:56:39;;;;;;;13.85;12.53;;;;;;;33.14;29.84;100695.81;1721834;82;20937;-66
2021/09/14 07:59:09;;;;;;;16.97;12.37;;;;;;;33.35;29.61;100695.70;1719238;83;21122;-67
2021/09/14 08:01:37;;;;;;;15.80;12.88;;;;;;;33.55;29.51;100702.08;1719171;83;20944;-68
2021/09/14 08:04:05;;;;;;;15.78;11.97;;;;;;;33.76;29.39;100694.32;1720236;83;20882;-66
2021/09/14 08:06:32;;;;;;;13.48;11.43;;;;;;;34.01;29.14;100693.94;1703752;83;20891;-69
2021/09/14 08:09:00;;;;;;;15.18;10.55;;;;;;;34.21;28.74;100701.65;1720258;83;20992;-67
2021/09/14 08:11:27;;;;;;;16.37;11.95;;;;;;;34.39;28.58;100700.03;1720009;83;21147;-68
2021/09/14 08:13:55;;;;;;;14.60;11.83;;;;;;;34.57;28.64;100698.12;1720310;82;20838;-67
2021/09/14 08:16:22;;;;;;;15.68;11.25;;;;;;;34.71;28.36;100694.53;1720325;83;20985;-67
2021/09/14 08:18:49;;;;;;;18.95;12.05;;;;;;;34.83;28.52;100697.98;1720249;82;20953;-67
2021/09/14 08:21:16;;;;;;;13.68;11.57;;;;;;;35.00;28.31;100694.67;1720261;83;21043;-67
2021/09/14 08:23:45;;;;;;;16.40;10.55;;;;;;;35.08;27.94;100696.97;1720294;83;20876;-66
2021/09/14 08:26:12;;;;;;;15.15;11.53;;;;;;;35.16;27.39;100695.72;1720097;83;21118;-67
2021/09/14 08:28:39;;;;;;;13.93;10.90;;;;;;;35.26;26.88;100691.77;1719911;82;21453;-67
2021/09/14 08:31:08;;;;;;;12.58;11.10;;;;;;;35.37;26.84;100684.50;1719050;83;21545;-66
2021/09/14 08:33:36;;;;;;;12.33;11.00;;;;;;;35.49;26.82;100685.19;1720347;82;20889;-66
2021/09/14 08:36:03;;;;;;;15.80;11.33;;;;;;;35.64;25.95;100687.81;1720152;83;22129;-67
2021/09/14 08:38:31;;;;;;;17.27;10.88;;;;;;;35.77;26.21;100686.03;1720121;82;20929;-66
2021/09/14 08:40:59;;;;;;;13.35;10.88;;;;;;;35.86;26.00;100684.50;1720182;83;20919;-66
2021/09/14 08:43:26;;;;;;;14.58;10.23;;;;;;;35.86;26.01;100687.23;1720234;83;21031;-67
2021/09/14 08:45:54;;;;;;;18.67;10.98;;;;;;;35.89;26.05;100686.70;1720341;83;21324;-66
2021/09/14 08:48:21;;;;;;;14.15;11.22;;;;;;;35.98;25.70;100684.87;1720033;82;20991;-67
2021/09/14 08:50:48;;;;;;;12.00;10.78;;;;;;;36.06;24.89;100677.55;1719808;83;21482;-65
2021/09/14 08:53:15;;;;;;;15.80;10.43;;;;;;;36.10;24.83;100675.95;1720297;83;21036;-65
2021/09/14 08:55:42;;;;;;;11.90;10.70;;;;;;;36.17;24.47;100677.13;1720111;83;21331;-64
2021/09/14 08:58:13;;;;;;;20.97;12.68;;;;;;;36.07;24.47;100677.84;1713068;82;21474;-65
2021/09/14 09:00:39;;;;;;;13.75;10.43;;;;;;;36.08;25.13;100683.03;1772420;79;21221;-66
2021/09/14 09:03:06;;;;;;;11.57;10.43;;;;;;;36.24;24.66;100674.98;1772668;81;21298;-66
2021/09/14 09:05:39;;;;;;;12.85;9.70;;;;;;;36.33;25.12;100681.64;1773036;81;21333;-66
2021/09/14 09:08:23;;;;;;;11.15;9.68;;;;;;;36.42;24.61;100678.69;1772594;80;21510;-65
2021/09/14 09:11:03;;;;;;;12.43;10.05;;;;;;;36.43;23.39;100674.86;1773056;81;20845;-68
2021/09/14 09:13:46;;;;;;;11.22;9.43;;;;;;;36.50;23.62;100670.52;1772770;81;21192;-65
2021/09/14 09:16:25;;;;;;;13.90;9.13;;;;;;;36.59;23.27;100670.86;1753175;81;20944;-65
2021/09/14 09:18:57;;;;;;;15.78;9.28;;;;;;;36.72;23.14;100673.14;1772753;81;20915;-66
2021/09/14 09:21:34;;;;;;;12.88;8.85;;;;;;;36.80;22.79;100669.92;1772836;81;20872;-66
2021/09/14 09:24:06;;;;;;;13.00;8.60;;;;;;;36.88;22.72;100671.31;1772867;81;20872;-67
2021/09/14 09:26:36;;;;;;;12.13;8.33;;;;;;;36.92;22.36;100663.67;1773077;79;21071;-66
2021/09/14 09:29:07;;;;;;;11.70;8.78;;;;;;;37.01;22.69;100663.16;1772908;79;20904;-66
2021/09/14 09:31:38;;;;;;;19.27;9.98;;;;;;;37.02;22.68;100662.06;1772897;81;20856;-67
2021/09/14 09:34:08;;;;;;;16.17;9.63;;;;;;;37.08;22.56;100663.77;1772756;80;20876;-67
2021/09/14 09:36:42;;;;;;;9.78;8.48;;;;;;;37.21;22.52;100663.81;1772803;79;20841;-65
2021/09/14 09:39:12;;;;;;;10.95;8.88;;;;;;;37.30;22.11;100657.53;1772165;80;21319;-66
2021/09/14 09:41:56;;;;;;;10.98;8.23;;;;;;;37.28;21.90;100660.27;1772993;80;20932;-66
2021/09/14 09:44:22;;;;;;;12.90;8.88;;;;;;;37.26;21.97;100654.24;1754438;81;20848;-66
2021/09/14 09:46:57;;;;;;;14.93;8.78;;;;;;;37.25;22.05;100658.90;1772764;81;20923;-66
2021/09/14 09:49:24;;;;;;;8.53;7.58;;;;;;;37.27;21.97;100649.88;1772820;79;21603;-67
2021/09/14 09:51:53;;;;;;;12.68;7.72;;;;;;;37.33;21.36;100651.55;1772861;81;21338;-67
2021/09/14 09:54:20;;;;;;;9.33;8.45;;;;;;;37.35;21.29;100644.41;1772697;81;20975;-67
2021/09/14 09:56:49;;;;;;;12.28;8.65;;;;;;;37.37;22.05;100649.63;1773152;79;20860;-69
2021/09/14 09:59:17;;;;;;;12.23;8.05;;;;;;;37.34;22.15;100649.07;1779682;80;20999;-67
2021/09/14 10:02:04;;;;;;;8.20;7.40;;;;;;;37.39;22.28;100648.81;1781296;79;20841;-65
2021/09/14 10:04:31;;;;;;;9.70;8.20;;;;;;;37.39;22.13;100650.99;1779263;80;21132;-66
2021/09/14 10:07:02;;;;;;;14.00;8.88;;;;;;;37.40;21.66;100647.70;1778887;79;20923;-66
2021/09/14 10:09:32;;;;;;;10.30;8.75;;;;;;;37.42;21.35;100650.99;1751366;80;20908;-67
2021/09/14 10:12:43;;;;;;;12.80;8.95;;;;;;;37.44;21.27;100646.92;1798696;79;22705;-67
2021/09/14 10:15:14;;;;;;;13.50;9.13;;;;;;;37.33;21.22;100647.96;1739287;81;21461;-67
2021/09/14 10:17:53;;;;;;;11.28;8.30;;;;;;;37.25;21.71;100652.06;1758282;81;22195;-66
2021/09/14 10:20:22;;;;;;;11.55;8.23;;;;;;;37.27;21.60;100652.62;1758261;81;20853;-65
2021/09/14 10:23:07;;;;;;;13.93;9.13;;;;;;;37.36;21.50;100646.63;1758268;81;20904;-67
2021/09/14 10:25:35;;;;;;;17.85;9.45;;;;;;;37.32;21.17;100644.41;1756585;81;20871;-65
2021/09/14 10:28:11;;;;;;;17.80;8.10;;;;;;;37.32;21.52;100642.23;1758107;80;20872;-66
2021/09/14 10:30:39;;;;;;;12.25;8.35;;;;;;;37.34;21.23;100635.39;1758526;81;21151;-66
2021/09/14 10:33:06;;;;;;;9.95;8.38;;;;;;;37.29;21.40;100638.68;1758638;81;21555;-66
2021/09/14 10:35:35;;;;;;;9.20;8.08;;;;;;;37.17;21.15;100636.16;1758247;81;20888;-68
2021/09/14 10:38:11;;;;;;;9.48;6.97;;;;;;;37.11;21.30;100634.53;1758175;81;20897;-66
2021/09/14 10:40:40;;;;;;;10.80;7.37;;;;;;;37.06;20.70;100630.36;1758197;81;20936;-67
2021/09/14 10:43:08;;;;;;;10.38;7.97;;;;;;;37.01;20.34;100628.98;1758103;81;21100;-66
2021/09/14 10:45:42;;;;;;;16.02;8.48;;;;;;;36.91;20.79;100632.52;1758174;80;20951;-66
2021/09/14 10:48:25;;;;;;;9.25;7.12;;;;;;;36.88;21.03;100633.03;1758117;81;20946;-66
2021/09/14 10:50:53;;;;;;;9.25;7.67;;;;;;;36.89;21.30;100623.20;1740369;80;20912;-67
2021/09/14 10:53:28;;;;;;;12.03;6.87;;;;;;;36.89;21.75;100629.23;1758214;80;20880;-67
2021/09/14 10:55:58;;;;;;;7.87;7.17;;;;;;;36.84;21.72;100629.19;1758065;81;21548;-66
2021/09/14 10:58:27;;;;;;;9.28;7.55;;;;;;;36.73;21.95;100624.25;1758080;81;21485;-66
2021/09/14 11:00:54;;;;;;;9.08;7.42;;;;;;;36.68;22.15;100624.20;1758117;81;21009;-66
2021/09/14 11:03:22;;;;;;;8.30;7.58;;;;;;;36.60;22.33;100620.08;1758436;81;21385;-67
2021/09/14 11:05:51;;;;;;;9.55;7.08;;;;;;;36.30;22.37;100624.23;1758313;80;20901;-66
2021/09/14 11:08:24;;;;;;;10.20;7.00;;;;;;;36.20;22.75;100622.82;1758240;81;21219;-66
2021/09/14 11:11:01;;;;;;;13.43;6.70;;;;;;;36.16;23.37;100621.70;1757302;81;21334;-66
2021/09/14 11:13:30;;;;;;;8.95;7.65;;;;;;;36.05;23.51;100618.03;1758460;81;20940;-67
2021/09/14 11:16:03;;;;;;;16.25;9.03;;;;;;;35.99;23.57;100619.08;1758500;81;20944;-67
2021/09/14 11:18:34;;;;;;;10.23;8.30;;;;;;;35.86;23.60;100616.78;1758395;81;20924;-67
2021/09/14 11:21:09;;;;;;;10.25;7.30;;;;;;;35.80;23.71;100620.58;1758518;81;20885;-66
2021/09/14 11:23:45;;;;;;;9.30;8.15;;;;;;;35.66;24.15;100618.80;1757848;81;21500;-65
2021/09/14 11:26:14;;;;;;;14.98;9.20;;;;;;;35.43;24.69;100614.47;1758242;80;21000;-65
2021/09/14 11:28:42;;;;;;;14.05;8.88;;;;;;;35.08;25.63;100611.61;1757946;80;20884;-67
2021/09/14 11:31:13;;;;;;;8.90;8.13;;;;;;;34.75;25.54;100613.94;1758058;80;20967;-67
2021/09/14 11:33:43;;;;;;;10.85;8.40;;;;;;;34.40;26.06;100617.27;1758028;81;21153;-67
2021/09/14 11:36:11;;;;;;;9.93;7.90;;;;;;;34.11;26.26;100613.03;1757883;80;20880;-66
2021/09/14 11:38:39;;;;;;;12.95;7.70;;;;;;;33.85;26.55;100612.04;1757918;81;20987;-65
2021/09/14 11:41:11;;;;;;;15.55;8.25;;;;;;;33.61;27.74;100618.70;1758067;80;20923;-66
2021/09/14 11:43:43;;;;;;;16.02;8.55;;;;;;;33.39;28.24;100605.77;1757960;80;20936;-68
2021/09/14 11:46:19;;;;;;;8.85;7.95;;;;;;;33.28;28.54;100611.27;1758351;81;21533;-67
2021/09/14 11:48:58;;;;;;;17.37;8.63;;;;;;;33.17;28.67;100608.88;1757696;80;21002;-67
2021/09/14 11:51:30;;;;;;;10.70;7.78;;;;;;;33.12;28.63;100617.77;1757976;80;21221;-67
2021/09/14 11:53:59;;;;;;;9.83;7.70;;;;;;;33.09;28.81;100616.08;1757959;80;20923;-66
2021/09/14 11:56:27;;;;;;;9.15;7.42;;;;;;;33.10;28.45;100616.36;1758119;81;20928;-67
2021/09/14 11:58:54;;;;;;;21.82;7.62;;;;;;;33.00;29.76;100620.49;1757860;80;21202;-67
2021/09/14 12:01:25;;;;;;;9.00;8.10;;;;;;;32.80;31.12;100629.59;1757711;81;20884;-66
2021/09/14 12:03:54;;;;;;;15.03;8.93;;;;;;;32.47;33.27;100625.58;1757497;81;20885;-64
2021/09/14 12:06:32;;;;;;;16.73;8.88;;;;;;;31.90;34.43;100627.45;1757703;81;20872;-65
2021/09/14 12:09:02;;;;;;;11.95;8.23;;;;;;;31.24;35.37;100624.31;1758006;81;20998;-67
2021/09/14 12:11:31;;;;;;;9.23;8.10;;;;;;;30.52;35.83;100628.98;1758002;81;21469;-63
2021/09/14 12:14:01;;;;;;;10.85;8.48;;;;;;;29.91;36.95;100630.00;1757913;80;21553;-65
2021/09/14 12:16:32;;;;;;;10.28;8.60;;;;;;;29.37;37.71;100633.22;1757918;80;20932;-63
2021/09/14 12:19:01;;;;;;;11.05;8.30;;;;;;;28.88;38.40;100629.56;1757908;80;20912;-64